createdAt,value
2023-05-06T00:01:44.953Z,8.07
2023-05-06T00:04:12.932Z,7.22
2023-05-06T00:06:40.524Z,7.57
2023-05-06T00:09:08.737Z,8.80
2023-05-06T00:11:35.396Z,8.05
2023-05-06T00:14:04.813Z,8.23
2023-05-06T00:16:31.834Z,7.20
2023-05-06T00:18:58.498Z,9.18
2023-05-06T00:21:25.209Z,7.85
2023-05-06T00:23:51.876Z,7.60
2023-05-06T00:26:19.011Z,8.07
2023-05-06T00:28:45.736Z,7.75
2023-05-06T00:31:12.385Z,8.43
2023-05-06T00:33:39.036Z,8.70
2023-05-06T00:36:05.937Z,9.55
2023-05-06T00:38:32.617Z,9.07
2023-05-06T00:40:59.348Z,8.25
2023-05-06T00:43:26.065Z,8.40
2023-05-06T00:45:52.893Z,9.02
2023-05-06T00:48:19.797Z,8.65
2023-05-06T00:50:46.642Z,8.70
2023-05-06T00:53:14.599Z,8.48
2023-05-06T00:55:41.512Z,8.02
2023-05-06T00:58:08.792Z,9.50
2023-05-06T01:00:35.554Z,8.32
2023-05-06T01:03:02.302Z,8.85
2023-05-06T01:05:33.833Z,9.05
2023-05-06T01:08:29.774Z,8.70
2023-05-06T01:11:05.373Z,9.07
2023-05-06T01:13:50.141Z,8.20
2023-05-06T01:16:21.665Z,8.82
2023-05-06T01:18:52.406Z,8.93
2023-05-06T01:21:22.641Z,8.77
2023-05-06T01:23:54.572Z,9.73
2023-05-06T01:26:22.093Z,9.13
2023-05-06T01:28:50.801Z,8.90
2023-05-06T01:31:25.464Z,10.23
2023-05-06T01:34:13.851Z,8.95
2023-05-06T01:36:55.838Z,9.57
2023-05-06T01:39:26.637Z,9.00
2023-05-06T01:41:55.987Z,10.63
2023-05-06T01:44:23.838Z,9.27
2023-05-06T01:46:52.670Z,9.95
2023-05-06T01:49:22.108Z,9.65
2023-05-06T01:51:49.794Z,9.52
2023-05-06T01:54:17.048Z,9.88
2023-05-06T01:56:43.806Z,9.93
2023-05-06T01:59:10.542Z,9.80
2023-05-06T02:01:38.464Z,10.25
2023-05-06T02:04:06.854Z,10.63
2023-05-06T02:06:34.990Z,9.80
2023-05-06T02:09:02.569Z,10.48
2023-05-06T02:11:30.368Z,9.88
2023-05-06T02:14:00.524Z,10.90
2023-05-06T02:16:32.481Z,10.82
2023-05-06T02:19:01.891Z,11.52
2023-05-06T02:21:29.070Z,9.65
2023-05-06T02:23:55.826Z,11.13
2023-05-06T02:26:22.809Z,11.10
2023-05-06T02:28:49.594Z,9.65
2023-05-06T02:31:16.775Z,9.38
2023-05-06T02:33:45.299Z,9.98
2023-05-06T02:36:13.501Z,10.18
2023-05-06T02:38:40.220Z,9.55
2023-05-06T02:41:06.891Z,10.50
2023-05-06T02:43:33.574Z,9.98
2023-05-06T02:46:00.334Z,9.38
2023-05-06T02:48:27.063Z,10.27
2023-05-06T02:50:55.171Z,10.15
2023-05-06T02:53:23.695Z,11.15
2023-05-06T02:55:54.111Z,9.77
2023-05-06T02:58:22.858Z,10.23
2023-05-06T03:00:49.563Z,11.27
2023-05-06T03:03:16.932Z,9.48
2023-05-06T03:05:43.662Z,9.90
2023-05-06T03:08:10.356Z,10.48
2023-05-06T03:10:37.259Z,10.60
2023-05-06T03:13:04.090Z,10.00
2023-05-06T03:15:30.845Z,10.57
2023-05-06T03:17:57.582Z,11.23
2023-05-06T03:20:24.370Z,10.98
2023-05-06T03:22:51.100Z,9.98
2023-05-06T03:25:17.765Z,10.35
2023-05-06T03:27:44.498Z,9.93
2023-05-06T03:30:11.551Z,10.85
2023-05-06T03:32:38.654Z,10.85
2023-05-06T03:35:05.964Z,10.15
2023-05-06T03:37:32.890Z,12.15
2023-05-06T03:39:59.565Z,12.07
2023-05-06T03:42:26.439Z,11.60
2023-05-06T03:44:53.170Z,10.23
2023-05-06T03:47:22.430Z,10.65
2023-05-06T03:49:50.649Z,10.38
2023-05-06T03:52:18.990Z,10.32
2023-05-06T03:54:47.728Z,10.82
2023-05-06T03:57:15.586Z,10.82
2023-05-06T03:59:42.285Z,12.00
2023-05-06T04:02:10.373Z,11.40
2023-05-06T04:04:38.461Z,11.48
2023-05-06T04:07:05.580Z,10.73
2023-05-06T04:09:41.311Z,10.95
2023-05-06T04:12:11.024Z,12.30
2023-05-06T04:14:39.920Z,11.57
2023-05-06T04:17:07.487Z,11.80
2023-05-06T04:19:34.149Z,11.95
2023-05-06T04:22:01.084Z,11.77
2023-05-06T04:24:27.726Z,11.48
2023-05-06T04:26:54.453Z,10.18
2023-05-06T04:29:21.228Z,10.93
2023-05-06T04:31:48.034Z,10.77
2023-05-06T04:34:14.871Z,11.10
2023-05-06T04:36:41.781Z,10.48
2023-05-06T04:39:08.508Z,10.43
2023-05-06T04:41:35.183Z,10.90
2023-05-06T04:44:02.068Z,10.60
2023-05-06T04:46:28.841Z,10.50
2023-05-06T04:48:55.539Z,10.18
2023-05-06T04:51:22.239Z,10.05
2023-05-06T04:53:48.880Z,9.63
2023-05-06T04:56:15.615Z,9.90
2023-05-06T04:58:42.276Z,10.27
2023-05-06T05:01:09.733Z,9.88
2023-05-06T05:03:36.614Z,9.68
2023-05-06T05:06:03.440Z,10.05
2023-05-06T05:08:30.121Z,9.43
2023-05-06T05:10:56.831Z,10.57
2023-05-06T05:13:23.481Z,10.07
2023-05-06T05:15:50.146Z,9.82
2023-05-06T05:18:16.818Z,10.60
2023-05-06T05:20:43.552Z,10.35
2023-05-06T05:23:10.474Z,9.98
2023-05-06T05:25:38.405Z,11.45
2023-05-06T05:28:05.591Z,11.02
2023-05-06T05:30:33.317Z,10.57
2023-05-06T05:33:00.129Z,9.68
2023-05-06T05:35:27.502Z,9.85
2023-05-06T05:37:54.993Z,9.43
2023-05-06T05:40:21.812Z,10.60
2023-05-06T05:42:48.451Z,10.88
2023-05-06T05:45:15.256Z,10.57
2023-05-06T05:47:41.949Z,9.60
2023-05-06T05:50:08.967Z,9.82
2023-05-06T05:52:35.696Z,10.57
2023-05-06T05:55:02.688Z,10.00
2023-05-06T05:57:29.379Z,9.98
2023-05-06T05:59:56.112Z,9.98
2023-05-06T06:02:22.928Z,10.02
2023-05-06T06:04:51.375Z,9.95
2023-05-06T06:07:19.001Z,9.40
2023-05-06T06:09:49.317Z,10.43
2023-05-06T06:12:18.750Z,10.20
2023-05-06T06:14:45.464Z,9.48
2023-05-06T06:17:13.863Z,9.18
2023-05-06T06:19:40.600Z,9.88
2023-05-06T06:22:07.304Z,9.52
2023-05-06T06:24:34.011Z,9.73
2023-05-06T06:27:01.264Z,10.32
2023-05-06T06:29:28.249Z,9.73
2023-05-06T06:31:54.973Z,9.70
2023-05-06T06:34:22.493Z,10.07
2023-05-06T06:36:49.213Z,9.60
2023-05-06T06:39:18.658Z,9.68
2023-05-06T06:41:46.751Z,9.88
2023-05-06T06:44:13.516Z,9.38
2023-05-06T06:46:40.209Z,11.25
2023-05-06T06:49:06.916Z,9.68
2023-05-06T06:51:33.889Z,10.50
2023-05-06T06:54:00.640Z,9.98
2023-05-06T06:56:27.382Z,10.18
2023-05-06T06:58:54.091Z,10.07
2023-05-06T07:01:20.919Z,9.90
2023-05-06T07:03:48.916Z,9.77
2023-05-06T07:06:15.598Z,10.32
2023-05-06T07:08:42.354Z,10.93
2023-05-06T07:11:09.110Z,10.85
2023-05-06T07:13:36.324Z,9.57
2023-05-06T07:16:03.433Z,10.65
2023-05-06T07:18:30.198Z,9.45
2023-05-06T07:20:59.305Z,10.05
2023-05-06T07:23:29.938Z,10.00
2023-05-06T07:26:00.730Z,10.40
2023-05-06T07:28:27.522Z,10.73
2023-05-06T07:30:54.359Z,11.02
2023-05-06T07:33:21.067Z,10.20
2023-05-06T07:35:48.875Z,10.88
2023-05-06T07:38:16.921Z,10.20
2023-05-06T07:40:46.148Z,11.45
2023-05-06T07:43:13.948Z,11.60
2023-05-06T07:45:42.290Z,11.65
2023-05-06T07:48:12.695Z,11.02
2023-05-06T07:50:46.230Z,12.23
2023-05-06T07:53:13.010Z,11.75
2023-05-06T07:55:39.719Z,12.93
2023-05-06T07:58:07.101Z,12.38
2023-05-06T08:00:33.840Z,11.90
2023-05-06T08:03:00.623Z,12.65
2023-05-06T08:05:27.389Z,30.20
2023-05-06T08:07:54.066Z,16.10
2023-05-06T08:10:20.945Z,13.60
2023-05-06T08:12:47.989Z,13.65
2023-05-06T08:15:16.650Z,13.40
2023-05-06T08:17:43.431Z,14.05
2023-05-06T08:20:11.749Z,12.45
2023-05-06T08:22:38.459Z,13.65
2023-05-06T08:25:06.942Z,12.15
2023-05-06T08:27:35.738Z,13.35
2023-05-06T08:30:04.007Z,13.98
2023-05-06T08:32:33.945Z,13.35
2023-05-06T08:35:04.377Z,12.93
2023-05-06T08:37:36.399Z,14.82
2023-05-06T08:40:05.208Z,14.23
2023-05-06T08:42:36.718Z,14.70
2023-05-06T08:45:05.180Z,14.32
2023-05-06T08:47:32.560Z,14.82
2023-05-06T08:50:02.888Z,14.50
2023-05-06T08:52:30.076Z,14.45
2023-05-06T08:54:57.965Z,14.45
2023-05-06T08:57:25.139Z,14.63
2023-05-06T08:59:52.076Z,13.50
2023-05-06T09:02:19.493Z,13.57
2023-05-06T09:04:47.357Z,13.85
2023-05-06T09:07:14.038Z,13.55
2023-05-06T09:09:40.913Z,11.88
2023-05-06T09:12:11.650Z,12.40
2023-05-06T09:14:38.324Z,13.45
2023-05-06T09:17:05.319Z,11.52
2023-05-06T09:19:32.147Z,11.07
2023-05-06T09:21:59.125Z,13.02
2023-05-06T09:24:25.961Z,11.05
2023-05-06T09:26:52.576Z,10.13
2023-05-06T09:29:20.458Z,10.38
2023-05-06T09:31:48.013Z,10.98
2023-05-06T09:34:16.054Z,10.27
2023-05-06T09:36:42.762Z,10.00
2023-05-06T09:39:11.536Z,10.68
2023-05-06T09:41:39.083Z,9.90
2023-05-06T09:44:05.996Z,9.27
2023-05-06T09:46:32.890Z,9.50
2023-05-06T09:49:00.187Z,10.35
2023-05-06T09:51:27.172Z,9.13
2023-05-06T09:53:56.173Z,8.52
2023-05-06T09:56:23.632Z,8.50
2023-05-06T09:58:51.739Z,8.85
2023-05-06T10:01:32.837Z,9.18
2023-05-06T10:04:05.491Z,8.90
2023-05-06T10:06:33.027Z,9.05
2023-05-06T10:09:00.837Z,8.77
2023-05-06T10:11:30.242Z,8.75
2023-05-06T10:13:57.508Z,8.65
2023-05-06T10:16:24.330Z,8.65
2023-05-06T10:18:54.336Z,9.68
2023-05-06T10:21:24.771Z,8.60
2023-05-06T10:24:02.438Z,8.60
2023-05-06T10:26:30.707Z,9.15
2023-05-06T10:29:01.959Z,8.35
2023-05-06T10:31:33.138Z,8.43
2023-05-06T10:34:06.898Z,10.23
2023-05-06T10:36:37.316Z,8.32
2023-05-06T10:39:05.472Z,9.40
2023-05-06T10:41:34.958Z,8.77
2023-05-06T10:44:01.588Z,8.38
2023-05-06T10:46:30.737Z,8.20
2023-05-06T10:49:11.826Z,8.50
2023-05-06T10:51:41.095Z,7.60
2023-05-06T10:54:08.974Z,7.93
2023-05-06T10:57:00.490Z,7.28
2023-05-06T10:59:27.873Z,7.15
2023-05-06T11:02:09.193Z,7.30
2023-05-06T11:04:36.078Z,6.50
2023-05-06T11:07:15.398Z,7.00
2023-05-06T11:09:54.275Z,5.88
2023-05-06T11:12:21.389Z,5.95
2023-05-06T11:14:49.589Z,6.90
2023-05-06T11:17:33.062Z,6.63
2023-05-06T11:20:21.545Z,5.03
2023-05-06T11:22:48.447Z,5.85
2023-05-06T11:25:35.662Z,5.93
2023-05-06T11:28:10.339Z,4.82
2023-05-06T11:30:41.565Z,4.95
2023-05-06T11:33:09.323Z,5.20
2023-05-06T11:35:37.349Z,5.50
2023-05-06T11:38:04.380Z,4.63
2023-05-06T11:40:31.524Z,4.78
2023-05-06T11:43:14.633Z,4.90
2023-05-06T11:45:45.904Z,4.60
2023-05-06T11:48:16.470Z,5.38
2023-05-06T11:50:47.273Z,4.88
2023-05-06T11:53:16.761Z,4.53
2023-05-06T11:55:45.328Z,4.57
2023-05-06T11:58:29.204Z,4.78
2023-05-06T12:01:03.905Z,4.43
2023-05-06T12:03:31.946Z,5.38
2023-05-06T12:06:01.037Z,5.00
2023-05-06T12:08:33.339Z,4.43
2023-05-06T12:11:02.654Z,5.15
2023-05-06T12:13:30.078Z,4.60
2023-05-06T12:15:58.945Z,4.53
2023-05-06T12:18:26.277Z,4.97
2023-05-06T12:20:56.975Z,4.40
2023-05-06T12:23:23.657Z,4.85
2023-05-06T12:26:04.628Z,4.85
2023-05-06T12:28:33.037Z,4.40
2023-05-06T12:31:00.678Z,4.80
2023-05-06T12:33:27.380Z,4.10
2023-05-06T12:35:54.106Z,4.82
2023-05-06T12:38:20.760Z,4.45
2023-05-06T12:40:57.328Z,4.00
2023-05-06T12:43:33.304Z,4.20
2023-05-06T12:46:08.714Z,4.63
2023-05-06T12:48:35.657Z,5.07
2023-05-06T12:51:18.134Z,3.90
2023-05-06T12:53:44.830Z,3.95
2023-05-06T12:56:11.585Z,3.78
2023-05-06T12:58:38.387Z,4.20
2023-05-06T13:01:05.550Z,4.25
2023-05-06T13:03:32.422Z,3.75
2023-05-06T13:06:00.376Z,5.35
2023-05-06T13:08:28.557Z,4.13
2023-05-06T13:10:58.811Z,3.65
2023-05-06T13:13:27.052Z,4.10
2023-05-06T13:15:54.359Z,3.40
2023-05-06T13:18:21.019Z,3.42
2023-05-06T13:20:47.708Z,3.38
2023-05-06T13:23:14.447Z,3.03
2023-05-06T13:25:52.048Z,3.58
2023-05-06T13:28:32.688Z,3.53
2023-05-06T13:30:59.422Z,4.10
2023-05-06T13:33:26.253Z,3.70
2023-05-06T13:35:52.974Z,3.88
2023-05-06T13:38:19.739Z,5.63
2023-05-06T13:40:49.972Z,4.50
2023-05-06T13:43:16.749Z,3.60
2023-05-06T13:45:43.598Z,4.05
2023-05-06T13:48:10.680Z,3.60
2023-05-06T13:50:37.373Z,3.42
2023-05-06T13:53:04.632Z,4.05
2023-05-06T13:55:31.302Z,4.10
2023-05-06T13:57:58.022Z,3.20
2023-05-06T14:00:24.960Z,3.60
2023-05-06T14:02:51.715Z,3.60
2023-05-06T14:05:18.628Z,4.30
2023-05-06T14:07:48.555Z,3.88
2023-05-06T14:10:16.437Z,3.70
2023-05-06T14:12:43.181Z,3.78
2023-05-06T14:15:10.658Z,4.03
2023-05-06T14:17:38.567Z,3.33
2023-05-06T14:20:08.296Z,3.58
2023-05-06T14:22:36.542Z,3.90
2023-05-06T14:25:03.293Z,3.00
2023-05-06T14:27:30.066Z,2.88
2023-05-06T14:29:56.800Z,9.77
2023-05-06T14:32:23.528Z,6.13
2023-05-06T14:34:51.296Z,3.03
2023-05-06T14:37:17.988Z,3.42
2023-05-06T14:39:46.023Z,3.13
2023-05-06T14:42:12.754Z,3.13
2023-05-06T14:44:40.747Z,3.40
2023-05-06T14:47:07.404Z,3.08
2023-05-06T14:49:36.411Z,3.05
2023-05-06T14:52:04.711Z,2.72
2023-05-06T14:54:33.518Z,2.60
2023-05-06T14:57:00.204Z,2.40
2023-05-06T14:59:27.006Z,2.60
2023-05-06T15:01:53.725Z,2.75
2023-05-06T15:04:20.463Z,3.22
2023-05-06T15:06:47.154Z,3.70
2023-05-06T15:09:13.846Z,3.33
2023-05-06T15:11:40.486Z,3.33
2023-05-06T15:14:07.127Z,3.42
2023-05-06T15:16:33.879Z,4.20
2023-05-06T15:19:00.625Z,4.30
2023-05-06T15:21:27.263Z,4.70
2023-05-06T15:23:54.028Z,3.97
2023-05-06T15:26:21.841Z,4.07
2023-05-06T15:28:49.761Z,4.13
2023-05-06T15:31:16.628Z,3.45
2023-05-06T15:33:44.870Z,4.22
2023-05-06T15:36:13.103Z,4.10
2023-05-06T15:38:53.793Z,3.40
2023-05-06T15:41:20.861Z,3.47
2023-05-06T15:43:47.524Z,4.00
2023-05-06T15:46:14.267Z,3.50
2023-05-06T15:48:41.850Z,3.00
2023-05-06T15:51:08.600Z,3.90
2023-05-06T15:53:39.333Z,3.95
2023-05-06T15:56:13.444Z,3.60
2023-05-06T15:58:43.959Z,3.55
2023-05-06T16:01:10.921Z,4.20
2023-05-06T16:03:38.767Z,5.10
2023-05-06T16:06:05.570Z,4.43
2023-05-06T16:08:32.400Z,5.30
2023-05-06T16:10:59.204Z,4.15
2023-05-06T16:13:26.111Z,4.65
2023-05-06T16:15:53.037Z,4.35
2023-05-06T16:18:21.373Z,5.28
2023-05-06T16:20:51.311Z,4.40
2023-05-06T16:23:19.823Z,4.53
2023-05-06T16:25:49.993Z,4.22
2023-05-06T16:28:16.924Z,4.65
2023-05-06T16:30:46.683Z,4.60
2023-05-06T16:33:13.282Z,5.40
2023-05-06T16:35:40.436Z,5.20
2023-05-06T16:38:07.356Z,4.60
2023-05-06T16:40:40.989Z,7.57
2023-05-06T16:43:07.800Z,4.90
2023-05-06T16:45:34.683Z,4.43
2023-05-06T16:48:01.606Z,5.63
2023-05-06T16:50:28.394Z,4.90
2023-05-06T16:52:55.058Z,5.20
2023-05-06T16:55:21.925Z,5.47
2023-05-06T16:57:48.779Z,5.28
2023-05-06T17:00:19.386Z,4.88
2023-05-06T17:02:47.676Z,4.70
2023-05-06T17:05:15.285Z,5.35
2023-05-06T17:07:41.945Z,5.22
2023-05-06T17:10:09.132Z,5.13
2023-05-06T17:12:37.422Z,5.50
2023-05-06T17:15:05.935Z,5.03
2023-05-06T17:17:34.293Z,4.93
2023-05-06T17:20:01.334Z,5.78
2023-05-06T17:22:28.088Z,5.90
2023-05-06T17:24:55.956Z,5.72
2023-05-06T17:27:22.687Z,7.40
2023-05-06T17:29:49.720Z,6.60
2023-05-06T17:32:18.820Z,6.35
2023-05-06T17:34:45.696Z,5.90
2023-05-06T17:37:12.405Z,5.43
2023-05-06T17:39:39.082Z,6.18
2023-05-06T17:42:05.778Z,5.47
2023-05-06T17:44:32.482Z,6.00
2023-05-06T17:46:59.178Z,5.88
2023-05-06T17:49:28.154Z,6.28
2023-05-06T17:51:54.860Z,6.32
2023-05-06T17:54:22.384Z,6.50
2023-05-06T17:56:49.218Z,6.40
2023-05-06T17:59:18.932Z,6.55
2023-05-06T18:01:46.808Z,7.40
2023-05-06T18:04:13.981Z,6.85
2023-05-06T18:06:42.198Z,12.68
2023-05-06T18:09:09.249Z,9.77
2023-05-06T18:11:41.355Z,6.93
2023-05-06T18:14:10.746Z,6.75
2023-05-06T18:16:41.110Z,6.40
2023-05-06T18:19:17.624Z,6.88
2023-05-06T18:21:46.380Z,7.65
2023-05-06T18:24:16.499Z,7.68
2023-05-06T18:26:45.740Z,7.25
2023-05-06T18:29:13.317Z,8.30
2023-05-06T18:31:41.261Z,7.75
2023-05-06T18:34:09.974Z,11.18
2023-05-06T18:36:41.448Z,14.10
2023-05-06T18:39:10.447Z,11.93
2023-05-06T18:41:37.450Z,10.57
2023-05-06T18:44:06.878Z,10.90
2023-05-06T18:46:33.832Z,10.15
2023-05-06T18:49:02.970Z,10.90
2023-05-06T18:51:31.572Z,11.25
2023-05-06T18:53:58.343Z,10.68
2023-05-06T18:56:28.135Z,11.45
2023-05-06T18:59:05.091Z,11.30
2023-05-06T19:01:34.514Z,11.87
2023-05-06T19:04:01.928Z,11.98
2023-05-06T19:06:30.788Z,11.60
2023-05-06T19:09:00.982Z,11.73
2023-05-06T19:11:38.382Z,11.88
2023-05-06T19:14:06.788Z,11.93
2023-05-06T19:16:34.706Z,12.35
2023-05-06T19:19:10.077Z,12.65
2023-05-06T19:21:37.753Z,12.38
2023-05-06T19:24:10.695Z,12.32
2023-05-06T19:26:42.788Z,12.10
2023-05-06T19:29:13.137Z,13.93
2023-05-06T19:31:42.087Z,13.48
2023-05-06T19:34:15.885Z,12.77
2023-05-06T19:36:49.782Z,14.13
2023-05-06T19:39:18.887Z,14.63
2023-05-06T19:41:45.585Z,14.35
2023-05-06T19:44:12.625Z,15.38
2023-05-06T19:46:39.446Z,15.20
2023-05-06T19:49:08.829Z,15.68
2023-05-06T19:51:35.826Z,15.55
2023-05-06T19:54:02.608Z,16.42
2023-05-06T19:56:29.329Z,15.85
2023-05-06T19:58:58.429Z,16.63
2023-05-06T20:01:27.884Z,16.98
2023-05-06T20:03:54.948Z,17.55
2023-05-06T20:06:32.394Z,16.75
2023-05-06T20:09:00.549Z,17.70
2023-05-06T20:11:28.778Z,19.00
2023-05-06T20:13:55.480Z,18.80
2023-05-06T20:16:22.258Z,19.45
2023-05-06T20:18:49.452Z,18.70
2023-05-06T20:21:16.652Z,19.25
2023-05-06T20:23:49.363Z,18.88
2023-05-06T20:26:16.317Z,19.42
2023-05-06T20:28:43.107Z,20.27
2023-05-06T20:31:10.257Z,19.27
2023-05-06T20:33:37.189Z,18.95
2023-05-06T20:36:04.254Z,19.42
2023-05-06T20:38:31.011Z,20.10
2023-05-06T20:41:01.127Z,20.10
2023-05-06T20:43:27.892Z,20.08
2023-05-06T20:45:54.647Z,19.75
2023-05-06T20:48:21.402Z,20.63
2023-05-06T20:50:51.837Z,20.05
2023-05-06T20:53:20.131Z,20.27
2023-05-06T20:55:46.935Z,21.42
2023-05-06T20:58:13.733Z,20.48
2023-05-06T21:00:40.551Z,20.70
2023-05-06T21:03:07.372Z,20.40
2023-05-06T21:05:34.866Z,22.17
2023-05-06T21:08:01.591Z,22.10
2023-05-06T21:10:28.270Z,22.48
2023-05-06T21:12:55.297Z,21.10
2023-05-06T21:15:22.088Z,21.25
2023-05-06T21:17:49.418Z,21.42
2023-05-06T21:20:17.490Z,21.58
2023-05-06T21:22:44.210Z,22.15
2023-05-06T21:25:11.078Z,21.40
2023-05-06T21:27:37.946Z,22.27
2023-05-06T21:30:05.163Z,23.63
2023-05-06T21:32:31.940Z,22.83
2023-05-06T21:35:01.900Z,22.67
2023-05-06T21:37:28.684Z,22.98
2023-05-06T21:39:55.383Z,22.15
2023-05-06T21:42:22.122Z,21.50
2023-05-06T21:44:48.835Z,22.48
2023-05-06T21:47:15.504Z,21.70
2023-05-06T21:49:42.173Z,21.83
2023-05-06T21:52:10.103Z,22.23
2023-05-06T21:54:36.803Z,22.15
2023-05-06T21:57:04.751Z,21.45
2023-05-06T21:59:31.419Z,21.25
2023-05-06T22:01:59.647Z,20.77
2023-05-06T22:04:31.159Z,21.30
2023-05-06T22:06:59.380Z,21.58
2023-05-06T22:09:28.273Z,22.65
2023-05-06T22:11:55.301Z,23.20
2023-05-06T22:14:24.278Z,22.77
2023-05-06T22:16:54.259Z,21.33
2023-05-06T22:19:21.211Z,20.85
2023-05-06T22:21:47.959Z,20.02
2023-05-06T22:24:14.657Z,20.08
2023-05-06T22:26:41.508Z,20.17
2023-05-06T22:29:08.240Z,19.77
2023-05-06T22:31:35.083Z,19.63
2023-05-06T22:34:01.997Z,18.92
2023-05-06T22:36:29.071Z,19.08
2023-05-06T22:38:56.116Z,18.73
2023-05-06T22:41:22.824Z,18.10
2023-05-06T22:43:49.583Z,18.30
2023-05-06T22:46:18.368Z,18.75
2023-05-06T22:48:45.253Z,19.27
2023-05-06T22:51:15.063Z,18.85
2023-05-06T22:53:41.873Z,19.92
2023-05-06T22:56:09.991Z,19.83
2023-05-06T22:58:38.756Z,19.05
2023-05-06T23:01:08.316Z,19.13
2023-05-06T23:03:38.214Z,20.38
2023-05-06T23:06:05.151Z,19.00
2023-05-06T23:08:32.179Z,18.75
2023-05-06T23:10:58.971Z,18.15
2023-05-06T23:13:25.832Z,18.77
2023-05-06T23:15:52.601Z,19.55
2023-05-06T23:18:19.330Z,18.08
2023-05-06T23:20:46.041Z,17.67
2023-05-06T23:23:12.719Z,18.58
2023-05-06T23:25:39.402Z,17.63
2023-05-06T23:28:07.313Z,17.88
2023-05-06T23:30:34.017Z,17.80
2023-05-06T23:33:01.669Z,17.90
2023-05-06T23:35:29.993Z,17.02
2023-05-06T23:37:57.249Z,18.70
2023-05-06T23:40:25.336Z,18.02
2023-05-06T23:42:53.087Z,18.42
2023-05-06T23:45:19.791Z,16.40
2023-05-06T23:47:46.506Z,17.15
2023-05-06T23:50:13.765Z,17.40
2023-05-06T23:52:40.784Z,17.55
2023-05-06T23:55:07.827Z,16.65
2023-05-06T23:57:34.610Z,16.33
